sensor_id;sensor_type;location;lat;lon;timestamp;pressure;altitude;pressure_sealevel;temperature;humidity
43364;BME280;40636;52.424;-1.948;2023-01-30T00:01:37;100317.69;;;6.64;100.00
43364;BME280;40636;52.424;-1.948;2023-01-30T00:04:04;100316.75;;;6.76;100.00
43364;BME280;40636;52.424;-1.948;2023-01-30T00:06:30;100325.53;;;6.85;100.00
43364;BME280;40636;52.424;-1.948;2023-01-30T00:08:57;100322.56;;;6.93;100.00
43364;BME280;40636;52.424;-1.948;2023-01-30T00:11:24;100331.75;;;6.99;100.00
43364;BME280;40636;52.424;-1.948;2023-01-30T00:13:51;100328.19;;;7.05;100.00
43364;BME280;40636;52.424;-1.948;2023-01-30T00:16:18;100324.78;;;7.09;100.00
43364;BME280;40636;52.424;-1.948;2023-01-30T00:18:45;100316.56;;;7.16;100.00
43364;BME280;40636;52.424;-1.948;2023-01-30T00:21:13;100308.13;;;7.24;100.00
43364;BME280;40636;52.424;-1.948;2023-01-30T00:23:40;100309.75;;;7.32;100.00
43364;BME280;40636;52.424;-1.948;2023-01-30T00:26:08;100312.66;;;7.37;100.00
43364;BME280;40636;52.424;-1.948;2023-01-30T00:28:35;100318.28;;;7.42;100.00
43364;BME280;40636;52.424;-1.948;2023-01-30T00:31:02;100318.69;;;7.46;100.00
43364;BME280;40636;52.424;-1.948;2023-01-30T00:33:28;100311.72;;;7.50;100.00
43364;BME280;40636;52.424;-1.948;2023-01-30T00:35:56;100313.16;;;7.52;100.00
43364;BME280;40636;52.424;-1.948;2023-01-30T00:38:23;100319.03;;;7.56;100.00
43364;BME280;40636;52.424;-1.948;2023-01-30T00:40:50;100325.50;;;7.61;100.00
43364;BME280;40636;52.424;-1.948;2023-01-30T00:43:19;100324.41;;;7.62;100.00
43364;BME280;40636;52.424;-1.948;2023-01-30T00:46:11;100321.25;;;7.66;100.00
43364;BME280;40636;52.424;-1.948;2023-01-30T00:48:58;100321.25;;;7.66;100.00
43364;BME280;40636;52.424;-1.948;2023-01-30T00:51:25;100318.09;;;7.69;100.00
43364;BME280;40636;52.424;-1.948;2023-01-30T00:53:52;100327.13;;;7.69;100.00
43364;BME280;40636;52.424;-1.948;2023-01-30T00:56:18;100324.16;;;7.71;100.00
43364;BME280;40636;52.424;-1.948;2023-01-30T00:58:45;100333.81;;;7.73;100.00
43364;BME280;40636;52.424;-1.948;2023-01-30T01:01:12;100351.44;;;7.77;100.00
43364;BME280;40636;52.424;-1.948;2023-01-30T01:03:38;100361.69;;;7.82;100.00
43364;BME280;40636;52.424;-1.948;2023-01-30T01:06:05;100373.38;;;7.89;100.00
43364;BME280;40636;52.424;-1.948;2023-01-30T01:08:32;100371.31;;;7.84;100.00
43364;BME280;40636;52.424;-1.948;2023-01-30T01:10:59;100367.16;;;7.82;100.00
43364;BME280;40636;52.424;-1.948;2023-01-30T01:13:26;100367.44;;;7.74;100.00
43364;BME280;40636;52.424;-1.948;2023-01-30T01:15:53;100371.88;;;7.68;100.00
43364;BME280;40636;52.424;-1.948;2023-01-30T01:18:19;100364.13;;;7.65;100.00
43364;BME280;40636;52.424;-1.948;2023-01-30T01:20:46;100362.50;;;7.57;100.00
43364;BME280;40636;52.424;-1.948;2023-01-30T01:23:13;100356.25;;;7.50;100.00
43364;BME280;40636;52.424;-1.948;2023-01-30T01:25:39;100353.34;;;7.45;100.00
43364;BME280;40636;52.424;-1.948;2023-01-30T01:28:06;100358.53;;;7.53;100.00
43364;BME280;40636;52.424;-1.948;2023-01-30T01:30:33;100358.31;;;7.55;100.00
43364;BME280;40636;52.424;-1.948;2023-01-30T01:32:59;100355.22;;;7.45;100.00
43364;BME280;40636;52.424;-1.948;2023-01-30T01:35:26;100376.22;;;7.44;100.00
43364;BME280;40636;52.424;-1.948;2023-01-30T01:37:54;100361.34;;;7.40;100.00
43364;BME280;40636;52.424;-1.948;2023-01-30T01:40:22;100356.75;;;7.34;100.00
43364;BME280;40636;52.424;-1.948;2023-01-30T01:43:19;100361.00;;;7.30;100.00
43364;BME280;40636;52.424;-1.948;2023-01-30T01:45:48;100362.66;;;7.31;100.00
43364;BME280;40636;52.424;-1.948;2023-01-30T01:48:33;100359.31;;;7.29;100.00
43364;BME280;40636;52.424;-1.948;2023-01-30T01:51:05;100365.38;;;7.31;100.00
43364;BME280;40636;52.424;-1.948;2023-01-30T01:53:40;100366.44;;;7.30;100.00
43364;BME280;40636;52.424;-1.948;2023-01-30T01:56:11;100375.94;;;7.27;100.00
43364;BME280;40636;52.424;-1.948;2023-01-30T01:59:01;100386.56;;;7.35;100.00
43364;BME280;40636;52.424;-1.948;2023-01-30T02:01:31;100385.72;;;7.35;100.00
43364;BME280;40636;52.424;-1.948;2023-01-30T02:04:01;100387.03;;;7.32;100.00
43364;BME280;40636;52.424;-1.948;2023-01-30T02:06:30;100395.41;;;7.31;100.00
43364;BME280;40636;52.424;-1.948;2023-01-30T02:09:02;100397.72;;;7.34;100.00
43364;BME280;40636;52.424;-1.948;2023-01-30T02:11:41;100401.75;;;7.31;100.00
43364;BME280;40636;52.424;-1.948;2023-01-30T02:14:11;100406.34;;;7.31;100.00
43364;BME280;40636;52.424;-1.948;2023-01-30T02:16:41;100397.53;;;7.29;100.00
43364;BME280;40636;52.424;-1.948;2023-01-30T02:19:25;100403.84;;;7.29;100.00
43364;BME280;40636;52.424;-1.948;2023-01-30T02:33:51;100430.72;;;7.26;100.00
43364;BME280;40636;52.424;-1.948;2023-01-30T02:39:24;100429.69;;;7.27;100.00
43364;BME280;40636;52.424;-1.948;2023-01-30T02:47:10;100429.47;;;7.22;100.00
43364;BME280;40636;52.424;-1.948;2023-01-30T02:49:51;100425.53;;;7.18;100.00
43364;BME280;40636;52.424;-1.948;2023-01-30T02:52:20;100416.94;;;7.07;100.00
43364;BME280;40636;52.424;-1.948;2023-01-30T02:54:47;100422.88;;;6.98;100.00
43364;BME280;40636;52.424;-1.948;2023-01-30T02:57:20;100422.44;;;6.94;100.00
43364;BME280;40636;52.424;-1.948;2023-01-30T02:59:53;100413.00;;;6.90;100.00
43364;BME280;40636;52.424;-1.948;2023-01-30T03:06:08;100425.25;;;6.74;100.00
43364;BME280;40636;52.424;-1.948;2023-01-30T03:11:18;100435.16;;;6.55;100.00
43364;BME280;40636;52.424;-1.948;2023-01-30T03:14:13;100433.47;;;6.54;100.00
43364;BME280;40636;52.424;-1.948;2023-01-30T03:16:42;100435.59;;;6.46;100.00
43364;BME280;40636;52.424;-1.948;2023-01-30T03:19:11;100438.94;;;6.41;100.00
43364;BME280;40636;52.424;-1.948;2023-01-30T03:21:42;100449.44;;;6.38;100.00
43364;BME280;40636;52.424;-1.948;2023-01-30T03:24:11;100447.75;;;6.37;100.00
43364;BME280;40636;52.424;-1.948;2023-01-30T03:26:48;100450.28;;;6.31;100.00
43364;BME280;40636;52.424;-1.948;2023-01-30T03:29:16;100451.31;;;6.17;100.00
43364;BME280;40636;52.424;-1.948;2023-01-30T03:31:43;100463.88;;;6.12;100.00
43364;BME280;40636;52.424;-1.948;2023-01-30T03:34:10;100458.44;;;6.12;100.00
43364;BME280;40636;52.424;-1.948;2023-01-30T03:36:37;100452.38;;;6.09;100.00
43364;BME280;40636;52.424;-1.948;2023-01-30T03:39:03;100451.75;;;6.01;100.00
43364;BME280;40636;52.424;-1.948;2023-01-30T03:41:30;100459.88;;;5.94;100.00
43364;BME280;40636;52.424;-1.948;2023-01-30T03:43:57;100456.09;;;5.89;100.00
43364;BME280;40636;52.424;-1.948;2023-01-30T03:46:24;100465.09;;;5.89;100.00
43364;BME280;40636;52.424;-1.948;2023-01-30T03:48:50;100474.28;;;5.75;100.00
43364;BME280;40636;52.424;-1.948;2023-01-30T03:51:17;100472.41;;;5.75;100.00
43364;BME280;40636;52.424;-1.948;2023-01-30T03:53:44;100478.69;;;5.69;100.00
43364;BME280;40636;52.424;-1.948;2023-01-30T03:56:10;100487.84;;;5.55;100.00
43364;BME280;40636;52.424;-1.948;2023-01-30T03:58:37;100489.25;;;5.38;100.00
43364;BME280;40636;52.424;-1.948;2023-01-30T04:01:04;100499.50;;;5.35;100.00
43364;BME280;40636;52.424;-1.948;2023-01-30T04:03:32;100497.16;;;5.26;100.00
43364;BME280;40636;52.424;-1.948;2023-01-30T04:05:59;100502.38;;;5.21;100.00
43364;BME280;40636;52.424;-1.948;2023-01-30T04:08:25;100505.66;;;5.09;100.00
43364;BME280;40636;52.424;-1.948;2023-01-30T04:10:52;100515.66;;;5.02;100.00
43364;BME280;40636;52.424;-1.948;2023-01-30T04:13:19;100512.50;;;4.99;100.00
43364;BME280;40636;52.424;-1.948;2023-01-30T04:15:46;100524.88;;;5.01;100.00
43364;BME280;40636;52.424;-1.948;2023-01-30T04:18:12;100529.41;;;4.94;100.00
43364;BME280;40636;52.424;-1.948;2023-01-30T04:20:39;100525.00;;;4.93;100.00
43364;BME280;40636;52.424;-1.948;2023-01-30T04:23:06;100532.69;;;4.83;100.00
43364;BME280;40636;52.424;-1.948;2023-01-30T04:25:33;100525.88;;;4.66;100.00
43364;BME280;40636;52.424;-1.948;2023-01-30T04:27:59;100523.28;;;4.57;100.00
43364;BME280;40636;52.424;-1.948;2023-01-30T04:30:26;100528.88;;;4.49;100.00
43364;BME280;40636;52.424;-1.948;2023-01-30T04:32:53;100524.47;;;4.48;100.00
43364;BME280;40636;52.424;-1.948;2023-01-30T04:35:20;100528.59;;;4.38;100.00
43364;BME280;40636;52.424;-1.948;2023-01-30T04:37:46;100533.94;;;4.31;100.00
43364;BME280;40636;52.424;-1.948;2023-01-30T04:40:13;100532.66;;;4.27;100.00
43364;BME280;40636;52.424;-1.948;2023-01-30T04:42:40;100529.31;;;4.25;100.00
43364;BME280;40636;52.424;-1.948;2023-01-30T04:45:07;100530.13;;;4.25;100.00
43364;BME280;40636;52.424;-1.948;2023-01-30T04:47:33;100540.16;;;4.25;100.00
43364;BME280;40636;52.424;-1.948;2023-01-30T04:50:00;100535.94;;;4.22;100.00
43364;BME280;40636;52.424;-1.948;2023-01-30T04:52:27;100552.19;;;4.16;100.00
43364;BME280;40636;52.424;-1.948;2023-01-30T04:54:53;100561.38;;;4.15;100.00
43364;BME280;40636;52.424;-1.948;2023-01-30T04:57:20;100557.16;;;4.12;100.00
43364;BME280;40636;52.424;-1.948;2023-01-30T04:59:47;100545.47;;;4.12;100.00
43364;BME280;40636;52.424;-1.948;2023-01-30T05:02:13;100546.06;;;4.07;100.00
43364;BME280;40636;52.424;-1.948;2023-01-30T05:04:40;100547.41;;;3.96;100.00
43364;BME280;40636;52.424;-1.948;2023-01-30T05:07:07;100548.16;;;3.90;100.00
43364;BME280;40636;52.424;-1.948;2023-01-30T05:09:34;100555.69;;;3.88;100.00
43364;BME280;40636;52.424;-1.948;2023-01-30T05:12:01;100557.09;;;3.84;100.00
43364;BME280;40636;52.424;-1.948;2023-01-30T05:14:27;100549.31;;;3.81;100.00
43364;BME280;40636;52.424;-1.948;2023-01-30T05:16:54;100549.63;;;3.71;100.00
43364;BME280;40636;52.424;-1.948;2023-01-30T05:19:21;100556.34;;;3.75;100.00
43364;BME280;40636;52.424;-1.948;2023-01-30T05:21:47;100559.28;;;3.74;100.00
43364;BME280;40636;52.424;-1.948;2023-01-30T05:24:15;100562.63;;;3.76;100.00
43364;BME280;40636;52.424;-1.948;2023-01-30T05:26:41;100567.69;;;3.79;100.00
43364;BME280;40636;52.424;-1.948;2023-01-30T05:29:08;100561.41;;;3.78;100.00
43364;BME280;40636;52.424;-1.948;2023-01-30T05:31:35;100570.41;;;3.79;100.00
43364;BME280;40636;52.424;-1.948;2023-01-30T05:34:04;100572.19;;;3.72;100.00
43364;BME280;40636;52.424;-1.948;2023-01-30T05:36:30;100580.16;;;3.73;100.00
43364;BME280;40636;52.424;-1.948;2023-01-30T05:38:57;100574.25;;;3.70;100.00
43364;BME280;40636;52.424;-1.948;2023-01-30T05:41:24;100578.38;;;3.66;100.00
43364;BME280;40636;52.424;-1.948;2023-01-30T05:43:50;100577.75;;;3.64;100.00
43364;BME280;40636;52.424;-1.948;2023-01-30T05:46:18;100584.84;;;3.65;100.00
43364;BME280;40636;52.424;-1.948;2023-01-30T05:48:45;100580.00;;;3.60;100.00
43364;BME280;40636;52.424;-1.948;2023-01-30T05:51:20;100584.94;;;3.56;100.00
43364;BME280;40636;52.424;-1.948;2023-01-30T05:53:47;100585.41;;;3.60;100.00
43364;BME280;40636;52.424;-1.948;2023-01-30T05:56:14;100600.03;;;3.59;100.00
43364;BME280;40636;52.424;-1.948;2023-01-30T05:58:41;100597.09;;;3.61;100.00
43364;BME280;40636;52.424;-1.948;2023-01-30T06:01:11;100603.84;;;3.65;100.00
43364;BME280;40636;52.424;-1.948;2023-01-30T06:03:38;100591.38;;;3.70;100.00
43364;BME280;40636;52.424;-1.948;2023-01-30T06:06:05;100592.69;;;3.74;100.00
43364;BME280;40636;52.424;-1.948;2023-01-30T06:08:32;100602.50;;;3.75;100.00
43364;BME280;40636;52.424;-1.948;2023-01-30T06:11:04;100604.84;;;3.78;100.00
43364;BME280;40636;52.424;-1.948;2023-01-30T06:13:31;100606.16;;;3.83;100.00
43364;BME280;40636;52.424;-1.948;2023-01-30T06:15:58;100610.06;;;3.80;100.00
43364;BME280;40636;52.424;-1.948;2023-01-30T06:18:25;100610.44;;;3.77;100.00
43364;BME280;40636;52.424;-1.948;2023-01-30T06:20:52;100624.03;;;3.77;100.00
43364;BME280;40636;52.424;-1.948;2023-01-30T06:23:20;100626.09;;;3.75;100.00
43364;BME280;40636;52.424;-1.948;2023-01-30T06:25:47;100629.38;;;3.70;100.00
43364;BME280;40636;52.424;-1.948;2023-01-30T06:28:16;100619.09;;;3.66;100.00
43364;BME280;40636;52.424;-1.948;2023-01-30T06:30:43;100622.66;;;3.66;100.00
43364;BME280;40636;52.424;-1.948;2023-01-30T06:33:10;100616.38;;;3.66;100.00
43364;BME280;40636;52.424;-1.948;2023-01-30T06:35:37;100622.16;;;3.63;100.00
43364;BME280;40636;52.424;-1.948;2023-01-30T06:38:05;100632.03;;;3.64;100.00
43364;BME280;40636;52.424;-1.948;2023-01-30T06:40:31;100627.16;;;3.59;100.00
43364;BME280;40636;52.424;-1.948;2023-01-30T06:42:58;100627.16;;;3.59;100.00
43364;BME280;40636;52.424;-1.948;2023-01-30T06:45:25;100627.59;;;3.63;100.00
43364;BME280;40636;52.424;-1.948;2023-01-30T06:47:53;100638.44;;;3.63;100.00
43364;BME280;40636;52.424;-1.948;2023-01-30T06:50:23;100645.97;;;3.61;100.00
43364;BME280;40636;52.424;-1.948;2023-01-30T06:52:50;100653.72;;;3.64;100.00
43364;BME280;40636;52.424;-1.948;2023-01-30T06:55:20;100655.41;;;3.65;100.00
43364;BME280;40636;52.424;-1.948;2023-01-30T06:57:48;100655.69;;;3.70;100.00
43364;BME280;40636;52.424;-1.948;2023-01-30T07:00:19;100673.56;;;3.79;100.00
43364;BME280;40636;52.424;-1.948;2023-01-30T07:02:46;100676.34;;;3.86;100.00
43364;BME280;40636;52.424;-1.948;2023-01-30T07:05:13;100682.91;;;3.91;100.00
43364;BME280;40636;52.424;-1.948;2023-01-30T07:07:39;100682.16;;;3.97;100.00
43364;BME280;40636;52.424;-1.948;2023-01-30T07:10:07;100671.19;;;4.05;100.00
43364;BME280;40636;52.424;-1.948;2023-01-30T07:12:34;100680.63;;;4.10;100.00
43364;BME280;40636;52.424;-1.948;2023-01-30T07:15:03;100672.56;;;4.16;100.00
43364;BME280;40636;52.424;-1.948;2023-01-30T07:17:30;100669.25;;;4.21;100.00
43364;BME280;40636;52.424;-1.948;2023-01-30T07:19:57;100665.34;;;4.23;100.00
43364;BME280;40636;52.424;-1.948;2023-01-30T07:22:24;100670.38;;;4.26;100.00
43364;BME280;40636;52.424;-1.948;2023-01-30T07:24:50;100682.75;;;4.29;100.00
43364;BME280;40636;52.424;-1.948;2023-01-30T07:27:17;100687.78;;;4.32;100.00
43364;BME280;40636;52.424;-1.948;2023-01-30T07:29:44;100679.81;;;4.30;100.00
43364;BME280;40636;52.424;-1.948;2023-01-30T07:32:14;100691.94;;;4.28;100.00
43364;BME280;40636;52.424;-1.948;2023-01-30T07:34:41;100696.13;;;4.30;100.00
43364;BME280;40636;52.424;-1.948;2023-01-30T07:37:08;100690.69;;;4.30;100.00
43364;BME280;40636;52.424;-1.948;2023-01-30T07:39:34;100710.38;;;4.32;100.00
43364;BME280;40636;52.424;-1.948;2023-01-30T07:42:02;100712.88;;;4.34;100.00
43364;BME280;40636;52.424;-1.948;2023-01-30T07:44:29;100707.44;;;4.34;100.00
43364;BME280;40636;52.424;-1.948;2023-01-30T07:46:56;100711.69;;;4.37;100.00
43364;BME280;40636;52.424;-1.948;2023-01-30T07:49:23;100710.53;;;4.31;100.00
43364;BME280;40636;52.424;-1.948;2023-01-30T07:51:50;100732.56;;;4.36;100.00
43364;BME280;40636;52.424;-1.948;2023-01-30T07:54:16;100733.84;;;4.40;100.00
43364;BME280;40636;52.424;-1.948;2023-01-30T07:56:43;100732.63;;;4.43;100.00
43364;BME280;40636;52.424;-1.948;2023-01-30T07:59:11;100741.06;;;4.48;100.00
43364;BME280;40636;52.424;-1.948;2023-01-30T08:01:37;100759.31;;;4.54;100.00
43364;BME280;40636;52.424;-1.948;2023-01-30T08:04:04;100755.38;;;4.56;100.00
43364;BME280;40636;52.424;-1.948;2023-01-30T08:06:31;100762.88;;;4.54;100.00
43364;BME280;40636;52.424;-1.948;2023-01-30T08:09:02;100759.59;;;4.59;100.00
43364;BME280;40636;52.424;-1.948;2023-01-30T08:11:29;100774.28;;;4.65;100.00
43364;BME280;40636;52.424;-1.948;2023-01-30T08:13:55;100766.41;;;4.70;100.00
43364;BME280;40636;52.424;-1.948;2023-01-30T08:16:22;100753.84;;;4.69;100.00
43364;BME280;40636;52.424;-1.948;2023-01-30T08:18:49;100761.81;;;4.70;100.00
43364;BME280;40636;52.424;-1.948;2023-01-30T08:21:15;100764.53;;;4.70;100.00
43364;BME280;40636;52.424;-1.948;2023-01-30T08:23:42;100775.66;;;4.75;100.00
43364;BME280;40636;52.424;-1.948;2023-01-30T08:26:09;100763.47;;;4.71;100.00
43364;BME280;40636;52.424;-1.948;2023-01-30T08:28:35;100765.34;;;4.71;100.00
43364;BME280;40636;52.424;-1.948;2023-01-30T08:31:02;100772.63;;;4.64;100.00
43364;BME280;40636;52.424;-1.948;2023-01-30T08:33:34;100787.88;;;4.65;100.00
43364;BME280;40636;52.424;-1.948;2023-01-30T08:36:00;100800.63;;;4.64;100.00
43364;BME280;40636;52.424;-1.948;2023-01-30T08:38:27;100802.13;;;4.67;100.00
43364;BME280;40636;52.424;-1.948;2023-01-30T08:40:54;100800.34;;;4.74;100.00
43364;BME280;40636;52.424;-1.948;2023-01-30T08:43:23;100805.84;;;4.80;100.00
43364;BME280;40636;52.424;-1.948;2023-01-30T08:45:52;100805.09;;;4.87;100.00
43364;BME280;40636;52.424;-1.948;2023-01-30T08:48:20;100820.16;;;4.89;100.00
43364;BME280;40636;52.424;-1.948;2023-01-30T08:50:46;100821.47;;;4.93;100.00
43364;BME280;40636;52.424;-1.948;2023-01-30T08:53:13;100828.19;;;4.97;100.00
43364;BME280;40636;52.424;-1.948;2023-01-30T08:55:40;100821.34;;;5.01;100.00
43364;BME280;40636;52.424;-1.948;2023-01-30T08:58:06;100815.53;;;5.04;100.00
43364;BME280;40636;52.424;-1.948;2023-01-30T09:00:33;100816.44;;;5.12;100.00
43364;BME280;40636;52.424;-1.948;2023-01-30T09:03:00;100820.19;;;5.11;100.00
43364;BME280;40636;52.424;-1.948;2023-01-30T09:05:27;100813.78;;;5.18;100.00
43364;BME280;40636;52.424;-1.948;2023-01-30T09:07:55;100816.69;;;5.17;100.00
43364;BME280;40636;52.424;-1.948;2023-01-30T09:10:22;100821.75;;;5.20;100.00
43364;BME280;40636;52.424;-1.948;2023-01-30T09:12:50;100829.53;;;5.23;100.00
43364;BME280;40636;52.424;-1.948;2023-01-30T09:15:17;100822.59;;;5.20;100.00
43364;BME280;40636;52.424;-1.948;2023-01-30T09:17:44;100833.94;;;5.24;100.00
43364;BME280;40636;52.424;-1.948;2023-01-30T09:20:12;100834.19;;;5.29;100.00
43364;BME280;40636;52.424;-1.948;2023-01-30T09:22:39;100838.31;;;5.25;100.00
43364;BME280;40636;52.424;-1.948;2023-01-30T09:25:06;100837.75;;;5.29;100.00
43364;BME280;40636;52.424;-1.948;2023-01-30T09:27:33;100834.38;;;5.27;100.00
43364;BME280;40636;52.424;-1.948;2023-01-30T09:30:00;100833.56;;;5.27;100.00
43364;BME280;40636;52.424;-1.948;2023-01-30T09:32:27;100841.50;;;5.28;100.00
43364;BME280;40636;52.424;-1.948;2023-01-30T09:34:53;100838.59;;;5.30;100.00
43364;BME280;40636;52.424;-1.948;2023-01-30T09:37:20;100843.41;;;5.28;100.00
43364;BME280;40636;52.424;-1.948;2023-01-30T09:39:47;100846.94;;;5.28;100.00
43364;BME280;40636;52.424;-1.948;2023-01-30T09:43:00;100858.31;;;5.32;100.00
43364;BME280;40636;52.424;-1.948;2023-01-30T09:47:55;100862.28;;;5.57;100.00
43364;BME280;40636;52.424;-1.948;2023-01-30T09:53:30;100869.66;;;5.85;100.00
43364;BME280;40636;52.424;-1.948;2023-01-30T09:55:58;100868.56;;;6.01;100.00
43364;BME280;40636;52.424;-1.948;2023-01-30T09:58:32;100866.13;;;6.13;100.00
43364;BME280;40636;52.424;-1.948;2023-01-30T10:01:09;100877.22;;;6.11;100.00
43364;BME280;40636;52.424;-1.948;2023-01-30T10:04:17;100873.19;;;6.00;100.00
43364;BME280;40636;52.424;-1.948;2023-01-30T10:07:05;100891.69;;;5.90;100.00
43364;BME280;40636;52.424;-1.948;2023-01-30T10:09:58;100888.53;;;5.87;100.00
43364;BME280;40636;52.424;-1.948;2023-01-30T10:12:38;100905.22;;;5.77;100.00
43364;BME280;40636;52.424;-1.948;2023-01-30T10:15:21;100907.75;;;5.78;100.00
43364;BME280;40636;52.424;-1.948;2023-01-30T10:23:33;100902.69;;;5.75;100.00
43364;BME280;40636;52.424;-1.948;2023-01-30T10:26:17;100903.13;;;5.79;100.00
43364;BME280;40636;52.424;-1.948;2023-01-30T10:29:03;100897.69;;;5.79;100.00
43364;BME280;40636;52.424;-1.948;2023-01-30T10:31:39;100899.91;;;5.69;100.00
43364;BME280;40636;52.424;-1.948;2023-01-30T10:34:28;100899.97;;;5.75;100.00
43364;BME280;40636;52.424;-1.948;2023-01-30T10:37:03;100898.31;;;5.81;100.00
43364;BME280;40636;52.424;-1.948;2023-01-30T10:40:02;100898.31;;;5.81;100.00
43364;BME280;40636;52.424;-1.948;2023-01-30T10:45:21;100891.44;;;5.85;100.00
43364;BME280;40636;52.424;-1.948;2023-01-30T10:50:30;100902.25;;;5.93;100.00
43364;BME280;40636;52.424;-1.948;2023-01-30T10:56:19;100901.44;;;5.99;100.00
43364;BME280;40636;52.424;-1.948;2023-01-30T10:59:19;100891.44;;;6.06;100.00
43364;BME280;40636;52.424;-1.948;2023-01-30T11:01:43;100877.03;;;6.13;100.00
43364;BME280;40636;52.424;-1.948;2023-01-30T11:04:22;100883.53;;;6.12;100.00
43364;BME280;40636;52.424;-1.948;2023-01-30T11:06:51;100865.94;;;6.14;100.00
43364;BME280;40636;52.424;-1.948;2023-01-30T11:09:19;100873.06;;;6.15;100.00
43364;BME280;40636;52.424;-1.948;2023-01-30T11:11:52;100867.25;;;6.25;100.00
43364;BME280;40636;52.424;-1.948;2023-01-30T11:14:19;100860.75;;;6.26;100.00
43364;BME280;40636;52.424;-1.948;2023-01-30T11:16:50;100858.63;;;6.21;100.00
43364;BME280;40636;52.424;-1.948;2023-01-30T11:19:21;100856.75;;;6.22;100.00
43364;BME280;40636;52.424;-1.948;2023-01-30T11:21:51;100859.06;;;6.18;100.00
43364;BME280;40636;52.424;-1.948;2023-01-30T11:24:27;100858.47;;;6.23;100.00
43364;BME280;40636;52.424;-1.948;2023-01-30T11:27:08;100869.34;;;6.23;100.00
43364;BME280;40636;52.424;-1.948;2023-01-30T11:29:37;100868.94;;;6.26;100.00
43364;BME280;40636;52.424;-1.948;2023-01-30T11:32:11;100867.63;;;6.15;100.00
43364;BME280;40636;52.424;-1.948;2023-01-30T11:35:51;100887.91;;;6.13;100.00
43364;BME280;40636;52.424;-1.948;2023-01-30T11:37:47;100890.94;;;6.18;100.00
43364;BME280;40636;52.424;-1.948;2023-01-30T11:42:51;100883.03;;;6.29;100.00
43364;BME280;40636;52.424;-1.948;2023-01-30T11:45:18;100887.72;;;6.42;100.00
43364;BME280;40636;52.424;-1.948;2023-01-30T11:48:00;100886.13;;;6.54;100.00
43364;BME280;40636;52.424;-1.948;2023-01-30T11:50:40;100886.59;;;6.65;100.00
43364;BME280;40636;52.424;-1.948;2023-01-30T11:53:34;100884.13;;;6.76;100.00
43364;BME280;40636;52.424;-1.948;2023-01-30T11:56:30;100865.69;;;6.85;100.00
43364;BME280;40636;52.424;-1.948;2023-01-30T11:59:02;100851.88;;;6.93;100.00
43364;BME280;40636;52.424;-1.948;2023-01-30T12:01:31;100841.19;;;6.98;100.00
43364;BME280;40636;52.424;-1.948;2023-01-30T12:03:59;100841.84;;;7.00;100.00
43364;BME280;40636;52.424;-1.948;2023-01-30T12:06:33;100853.38;;;6.96;100.00
43364;BME280;40636;52.424;-1.948;2023-01-30T12:09:00;100851.47;;;6.96;100.00
43364;BME280;40636;52.424;-1.948;2023-01-30T12:11:39;100850.59;;;6.89;100.00
43364;BME280;40636;52.424;-1.948;2023-01-30T12:22:42;100859.81;;;6.81;100.00
43364;BME280;40636;52.424;-1.948;2023-01-30T12:25:26;100873.03;;;6.78;100.00
43364;BME280;40636;52.424;-1.948;2023-01-30T12:28:09;100870.31;;;6.84;100.00
43364;BME280;40636;52.424;-1.948;2023-01-30T12:30:47;100885.22;;;6.82;100.00
43364;BME280;40636;52.424;-1.948;2023-01-30T12:33:16;100881.44;;;6.83;100.00
43364;BME280;40636;52.424;-1.948;2023-01-30T12:41:22;100893.81;;;6.85;100.00
43364;BME280;40636;52.424;-1.948;2023-01-30T12:52:04;100890.47;;;6.90;100.00
43364;BME280;40636;52.424;-1.948;2023-01-30T12:57:43;100871.56;;;6.82;100.00
43364;BME280;40636;52.424;-1.948;2023-01-30T13:00:32;100878.25;;;6.79;100.00
43364;BME280;40636;52.424;-1.948;2023-01-30T13:05:51;100873.69;;;6.93;100.00
43364;BME280;40636;52.424;-1.948;2023-01-30T13:11:32;100882.34;;;7.03;100.00
43364;BME280;40636;52.424;-1.948;2023-01-30T13:14:29;100869.13;;;7.07;100.00
43364;BME280;40636;52.424;-1.948;2023-01-30T13:17:09;100866.41;;;7.00;100.00
43364;BME280;40636;52.424;-1.948;2023-01-30T13:23:19;100872.03;;;6.99;100.00
43364;BME280;40636;52.424;-1.948;2023-01-30T13:25:58;100871.03;;;7.06;100.00
43364;BME280;40636;52.424;-1.948;2023-01-30T13:28:31;100859.28;;;7.12;100.00
43364;BME280;40636;52.424;-1.948;2023-01-30T13:31:04;100854.69;;;7.20;100.00
43364;BME280;40636;52.424;-1.948;2023-01-30T13:33:35;100848.59;;;7.31;100.00
43364;BME280;40636;52.424;-1.948;2023-01-30T13:36:26;100847.38;;;7.47;100.00
43364;BME280;40636;52.424;-1.948;2023-01-30T13:39:51;100856.19;;;7.49;100.00
43364;BME280;40636;52.424;-1.948;2023-01-30T13:41:55;100863.16;;;7.51;100.00
43364;BME280;40636;52.424;-1.948;2023-01-30T13:44:27;100862.50;;;7.49;100.00
43364;BME280;40636;52.424;-1.948;2023-01-30T13:47:02;100865.03;;;7.44;100.00
43364;BME280;40636;52.424;-1.948;2023-01-30T13:55:08;100864.63;;;7.47;100.00
43364;BME280;40636;52.424;-1.948;2023-01-30T13:57:48;100859.78;;;7.49;100.00
43364;BME280;40636;52.424;-1.948;2023-01-30T14:11:31;100863.16;;;7.65;100.00
43364;BME280;40636;52.424;-1.948;2023-01-30T14:14:22;100871.56;;;7.76;100.00
43364;BME280;40636;52.424;-1.948;2023-01-30T14:16:55;100860.88;;;7.81;100.00
43364;BME280;40636;52.424;-1.948;2023-01-30T14:19:36;100854.97;;;7.84;100.00
43364;BME280;40636;52.424;-1.948;2023-01-30T14:22:23;100854.34;;;7.82;100.00
43364;BME280;40636;52.424;-1.948;2023-01-30T14:27:36;100864.00;;;7.85;100.00
43364;BME280;40636;52.424;-1.948;2023-01-30T14:30:33;100860.84;;;7.88;100.00
43364;BME280;40636;52.424;-1.948;2023-01-30T14:38:39;100855.63;;;8.00;100.00
43364;BME280;40636;52.424;-1.948;2023-01-30T14:41:23;100861.91;;;8.00;100.00
43364;BME280;40636;52.424;-1.948;2023-01-30T14:43:52;100850.78;;;7.95;100.00
43364;BME280;40636;52.424;-1.948;2023-01-30T14:51:41;100880.19;;;7.93;100.00
43364;BME280;40636;52.424;-1.948;2023-01-30T14:57:02;100887.56;;;7.93;100.00